Weather Forecast for Dubai Airport 
Wednesday, August 23, 2017 (17:38 UTC)
Dubai International Airport
Last Updated: 23-08-2017(17:35Z)
Wind Dir/Speed: NE at 3 KT
Temperature: 36.3 °C
Rel. Humidity: 34 %
Pressure: 1002.0 hPa
Visibility: 10000 m
  • METAR OMDB 231730Z 06009KT CAVOK 36/19 Q1001 NOSIG
NEXT 5 DAY FORECAST (OMDB): as on 23-August-2017
WEDNESDAY
HIGH:
43 °C
LOW:
33 °C
THURSDAY
HIGH:
42 °C
LOW:
32 °C
FRIDAY
HIGH:
41 °C
LOW:
32 °C
SATURDAY
HIGH:
43 °C
LOW:
33 °C
SUNDAY
HIGH:
44 °C
LOW:
33 °C

DUBAI AIRPORT WEATHER FORECAST FOR 30 HOUR:
DUBAI TAF:
TAF OMDB 231654Z 2318/2500 08007KT CAVOK 
 BECMG 2402/2404 16010KT 
 BECMG 2408/2410 34012KT 
 BECMG 2416/2418 08005KT=
VALID FROM:
2017-08-23 18:00Z
VALID TILL:
2017-08-25 00:00Z
SURFACE WIND:
E'LY 07KT

BECOMING SSE'LY 10KT FROM 0200Z-0400Z THURSDAY

BECOMING NNW'LY 12KT FROM 0800Z-1000Z THURSDAY

BECOMING E'LY 05KT FROM 1600Z-1800Z THURSDAY.
VISIBILITY:
10-12 KM.
WEATHER:
FINE.
CLOUD:
NIL SIGNIFICANT.
TEMPERATURE:
MIN TEMPERATURE 32°C AROUND 0230Z THURSDAY

MAX TEMPERATURE 41°C AROUND 0830Z THURSDAY.
HUMIDITY:
MAX HUMIDITY 60% AROUND 0230Z THURSDAY

MIN HUMIDITY 20% AROUND 0830Z THURSDAY.
WIND SHEAR:
NIL SIGNIFICANT.
TEMPERATURE INVERSION:
NIL SIGNIFICANT.
COMMENTS:
NIL.